createdAt,value
2022-09-23T00:01:31.575Z,66.10
2022-09-23T00:04:01.221Z,65.97
2022-09-23T00:06:47.778Z,65.51
2022-09-23T00:09:15.715Z,65.71
2022-09-23T00:11:43.708Z,65.72
2022-09-23T00:14:11.914Z,65.56
2022-09-23T00:16:40.691Z,66.08
2022-09-23T00:19:08.957Z,65.56
2022-09-23T00:21:37.088Z,65.89
2022-09-23T00:24:05.620Z,66.00
2022-09-23T00:26:33.637Z,66.27
2022-09-23T00:29:18.047Z,66.64
2022-09-23T00:31:45.919Z,66.93
2022-09-23T00:34:13.945Z,66.78
2022-09-23T00:36:44.938Z,66.56
2022-09-23T00:39:12.988Z,65.89
2022-09-23T00:41:42.123Z,65.01
2022-09-23T00:44:44.972Z,65.22
2022-09-23T00:47:36.196Z,64.47
2022-09-23T00:50:09.749Z,64.25
2022-09-23T00:52:38.390Z,63.14
2022-09-23T00:55:29.292Z,62.85
2022-09-23T00:58:00.032Z,62.72
2022-09-23T01:00:28.045Z,62.22
2022-09-23T01:02:57.887Z,62.08
2022-09-23T01:05:26.209Z,61.56
2022-09-23T01:07:58.466Z,61.18
2022-09-23T01:10:29.376Z,61.62
2022-09-23T01:13:07.632Z,61.14
2022-09-23T01:15:42.449Z,61.25
2022-09-23T01:18:16.286Z,60.59
2022-09-23T01:20:56.596Z,60.12
2022-09-23T01:23:50.492Z,60.44
2022-09-23T01:26:47.634Z,60.26
2022-09-23T01:30:04.456Z,59.13
2022-09-23T01:33:10.957Z,59.59
2022-09-23T01:36:05.154Z,59.57
2022-09-23T01:38:46.480Z,59.44
2022-09-23T01:41:25.189Z,58.99
2022-09-23T01:44:18.604Z,58.27
2022-09-23T01:46:57.488Z,58.61
2022-09-23T01:49:49.537Z,58.40
2022-09-23T01:52:37.430Z,58.54
2022-09-23T01:55:28.820Z,58.23
2022-09-23T01:58:04.906Z,57.76
2022-09-23T02:00:41.663Z,57.81
2022-09-23T02:03:17.649Z,57.48
2022-09-23T02:05:58.442Z,57.35
2022-09-23T02:08:42.583Z,57.29
2022-09-23T02:11:18.846Z,57.00
2022-09-23T02:13:53.398Z,56.68
2022-09-23T02:16:37.817Z,56.51
2022-09-23T02:19:42.795Z,56.36
2022-09-23T02:22:37.426Z,56.45
2022-09-23T02:25:06.593Z,56.11
2022-09-23T02:27:52.190Z,55.84
2022-09-23T02:30:33.135Z,56.21
2022-09-23T02:33:16.985Z,55.78
2022-09-23T02:36:04.887Z,55.56
2022-09-23T02:38:45.743Z,55.22
2022-09-23T02:41:44.359Z,54.98
2022-09-23T02:44:16.880Z,54.84
2022-09-23T02:46:45.672Z,54.66
2022-09-23T02:49:27.937Z,54.51
2022-09-23T02:51:57.436Z,53.90
2022-09-23T02:54:28.277Z,54.18
2022-09-23T02:56:58.113Z,53.99
2022-09-23T02:59:25.809Z,53.75
2022-09-23T03:02:14.955Z,53.67
2022-09-23T03:05:12.035Z,53.32
2022-09-23T03:08:10.951Z,53.12
2022-09-23T03:10:48.044Z,52.83
2022-09-23T03:13:36.532Z,52.76
2022-09-23T03:16:25.441Z,52.71
2022-09-23T03:18:59.976Z,52.28
2022-09-23T03:21:42.414Z,51.65
2022-09-23T03:24:17.000Z,52.01
2022-09-23T03:26:48.618Z,51.40
2022-09-23T03:29:20.425Z,51.71
2022-09-23T03:31:48.897Z,51.53
2022-09-23T03:34:28.196Z,50.95
2022-09-23T03:37:12.942Z,50.54
2022-09-23T03:39:54.930Z,49.99
2022-09-23T03:42:32.331Z,50.61
2022-09-23T03:45:02.097Z,50.83
2022-09-23T03:47:31.859Z,50.72
2022-09-23T03:49:59.954Z,50.81
2022-09-23T03:52:28.397Z,50.49
2022-09-23T03:54:56.467Z,50.12
2022-09-23T03:57:26.022Z,49.40
2022-09-23T03:59:54.071Z,49.68
2022-09-23T04:02:22.126Z,48.77
2022-09-23T04:04:50.560Z,48.66
2022-09-23T04:07:19.098Z,48.49
2022-09-23T04:09:47.268Z,48.31
2022-09-23T04:12:17.913Z,48.09
2022-09-23T04:14:46.672Z,48.01
2022-09-23T04:17:15.002Z,47.10
2022-09-23T04:19:44.069Z,47.32
2022-09-23T04:22:12.312Z,46.73
2022-09-23T04:24:40.543Z,46.92
2022-09-23T04:27:08.756Z,46.88
2022-09-23T04:29:36.790Z,46.93
2022-09-23T04:32:04.854Z,46.37
2022-09-23T04:34:36.051Z,45.36
2022-09-23T04:37:04.126Z,45.19
2022-09-23T04:39:32.081Z,45.21
2022-09-23T04:42:01.263Z,45.41
2022-09-23T04:44:30.076Z,45.43
2022-09-23T04:46:58.076Z,45.28
2022-09-23T04:49:27.222Z,44.60
2022-09-23T04:51:55.976Z,44.20
2022-09-23T04:54:23.870Z,43.94
2022-09-23T04:56:52.936Z,44.12
2022-09-23T04:59:20.836Z,43.76
2022-09-23T05:01:48.922Z,43.70
2022-09-23T05:04:17.102Z,44.23
2022-09-23T05:06:46.115Z,44.22
2022-09-23T05:09:17.939Z,44.16
2022-09-23T05:11:47.413Z,43.54
2022-09-23T05:14:15.429Z,43.70
2022-09-23T05:16:43.467Z,43.48
2022-09-23T05:19:14.135Z,43.51
2022-09-23T05:21:42.333Z,43.64
2022-09-23T05:24:11.554Z,43.95
2022-09-23T05:26:45.055Z,44.09
2022-09-23T05:29:12.965Z,43.70
2022-09-23T05:31:40.926Z,43.89
2022-09-23T05:34:10.368Z,43.45
2022-09-23T05:36:39.283Z,43.78
2022-09-23T05:39:08.909Z,43.74
2022-09-23T05:41:37.641Z,43.33
2022-09-23T05:44:05.844Z,43.05
2022-09-23T05:46:34.255Z,43.34
2022-09-23T05:49:03.716Z,43.84
2022-09-23T05:51:33.404Z,43.67
2022-09-23T05:54:04.623Z,43.42
2022-09-23T05:56:35.328Z,43.14
2022-09-23T05:59:03.976Z,42.92
2022-09-23T06:01:36.095Z,42.61
2022-09-23T06:04:07.619Z,42.99
2022-09-23T06:06:41.965Z,42.58
2022-09-23T06:09:16.754Z,42.46
2022-09-23T06:11:44.751Z,42.46
2022-09-23T06:14:15.318Z,41.90
2022-09-23T06:16:45.440Z,42.38
2022-09-23T06:19:13.391Z,41.78
2022-09-23T06:21:42.050Z,42.32
2022-09-23T06:24:17.520Z,42.48
2022-09-23T06:26:48.876Z,42.58
2022-09-23T06:29:17.817Z,41.92
2022-09-23T06:31:45.927Z,41.60
2022-09-23T06:34:14.975Z,41.74
2022-09-23T06:36:46.869Z,41.39
2022-09-23T06:39:16.231Z,41.37
2022-09-23T06:41:45.976Z,41.07
2022-09-23T06:44:17.176Z,41.13
2022-09-23T06:46:45.293Z,40.96
2022-09-23T06:49:13.961Z,40.93
2022-09-23T06:51:42.283Z,39.97
2022-09-23T06:54:11.895Z,39.41
2022-09-23T06:56:40.221Z,39.25
2022-09-23T06:59:13.832Z,38.71
2022-09-23T07:01:42.290Z,38.79
2022-09-23T07:04:11.530Z,38.70
2022-09-23T07:06:40.057Z,38.57
2022-09-23T07:09:09.158Z,38.17
2022-09-23T07:11:38.271Z,38.27
2022-09-23T07:14:06.593Z,38.10
2022-09-23T07:16:36.253Z,37.49
2022-09-23T07:19:04.262Z,37.55
2022-09-23T07:21:34.308Z,37.23
2022-09-23T07:24:02.444Z,37.37
2022-09-23T07:26:49.776Z,37.46
2022-09-23T07:29:17.693Z,37.47
2022-09-23T07:31:45.757Z,37.34
2022-09-23T07:34:14.736Z,37.13
2022-09-23T07:37:00.861Z,37.01
2022-09-23T07:39:28.952Z,37.22
2022-09-23T07:41:57.495Z,37.20
2022-09-23T07:44:26.258Z,36.62
2022-09-23T07:46:55.196Z,35.87
2022-09-23T07:49:23.143Z,35.77
2022-09-23T07:51:51.783Z,35.79
2022-09-23T07:54:21.969Z,36.33
2022-09-23T07:56:49.875Z,35.88
2022-09-23T07:59:19.599Z,35.21
2022-09-23T08:01:57.325Z,34.89
2022-09-23T08:04:28.804Z,35.02
2022-09-23T08:07:03.034Z,34.43
2022-09-23T08:09:42.762Z,34.38
2022-09-23T08:12:15.874Z,34.66
2022-09-23T08:14:44.737Z,34.32
2022-09-23T08:17:14.635Z,34.38
2022-09-23T08:19:42.513Z,34.20
2022-09-23T08:22:11.618Z,33.99
2022-09-23T08:24:39.679Z,33.64
2022-09-23T08:27:07.638Z,34.03
2022-09-23T08:29:36.702Z,33.82
2022-09-23T08:32:04.725Z,33.83
2022-09-23T08:34:32.646Z,33.91
2022-09-23T08:37:01.736Z,34.43
2022-09-23T08:39:29.773Z,34.57
2022-09-23T08:42:07.465Z,34.63
2022-09-23T08:44:46.795Z,34.72
2022-09-23T08:47:42.132Z,35.47
2022-09-23T08:50:23.664Z,35.45
2022-09-23T08:52:59.405Z,35.51
2022-09-23T08:55:36.281Z,35.73
2022-09-23T08:58:29.045Z,35.85
2022-09-23T09:01:09.347Z,35.41
2022-09-23T09:03:59.843Z,35.63
2022-09-23T09:06:53.494Z,34.88
2022-09-23T09:09:33.564Z,35.21
2022-09-23T09:12:11.376Z,35.40
2022-09-23T09:15:06.723Z,34.80
2022-09-23T09:18:11.772Z,34.85
2022-09-23T09:21:10.973Z,35.11
2022-09-23T09:23:50.995Z,35.39
2022-09-23T09:26:33.123Z,34.77
2022-09-23T09:29:30.830Z,35.22
2022-09-23T09:31:59.473Z,34.60
2022-09-23T09:34:41.748Z,33.83
2022-09-23T09:37:20.803Z,34.11
2022-09-23T09:39:48.628Z,34.25
2022-09-23T09:42:25.420Z,34.48
2022-09-23T09:44:59.254Z,34.37
2022-09-23T09:47:48.548Z,34.82
2022-09-23T09:50:37.910Z,34.64
2022-09-23T09:53:24.683Z,34.75
2022-09-23T09:56:08.666Z,35.26
2022-09-23T09:58:45.487Z,34.85
2022-09-23T10:01:27.697Z,34.97
2022-09-23T10:03:59.530Z,35.33
2022-09-23T10:06:36.511Z,35.84
2022-09-23T10:09:23.934Z,35.76
2022-09-23T10:12:16.439Z,35.37
2022-09-23T10:14:45.866Z,35.70
2022-09-23T10:17:23.566Z,35.22
2022-09-23T10:20:01.511Z,35.14
2022-09-23T10:22:39.697Z,35.25
2022-09-23T10:25:22.231Z,35.70
2022-09-23T10:27:50.263Z,35.74
2022-09-23T10:30:29.952Z,36.06
2022-09-23T10:32:58.148Z,35.79
2022-09-23T10:35:27.591Z,35.42
2022-09-23T10:37:57.273Z,35.21
2022-09-23T10:40:49.658Z,35.81
2022-09-23T10:43:46.149Z,35.62
2022-09-23T10:46:47.697Z,35.37
2022-09-23T10:49:29.137Z,35.47
2022-09-23T10:52:04.517Z,35.23
2022-09-23T10:54:41.598Z,35.45
2022-09-23T10:57:46.445Z,35.76
2022-09-23T11:00:27.739Z,35.87
2022-09-23T11:02:56.051Z,36.15
2022-09-23T11:06:02.267Z,36.43
2022-09-23T11:08:51.860Z,36.94
2022-09-23T11:11:53.295Z,36.97
2022-09-23T11:14:45.596Z,36.61
2022-09-23T11:17:35.873Z,36.17
2022-09-23T11:20:25.758Z,36.85
2022-09-23T11:23:07.994Z,37.03
2022-09-23T11:25:43.024Z,37.69
2022-09-23T11:28:20.791Z,37.92
2022-09-23T11:31:07.596Z,37.26
2022-09-23T11:34:06.919Z,37.20
2022-09-23T11:36:45.540Z,36.71
2022-09-23T11:39:44.327Z,37.19
2022-09-23T11:42:29.769Z,37.41
2022-09-23T11:45:24.297Z,37.97
2022-09-23T11:48:23.037Z,37.75
2022-09-23T11:51:40.163Z,37.92
2022-09-23T11:54:40.937Z,38.11
2022-09-23T11:57:26.186Z,38.77
2022-09-23T12:00:03.845Z,38.65
2022-09-23T12:03:06.124Z,38.55
2022-09-23T12:05:49.004Z,38.45
2022-09-23T12:08:35.963Z,38.60
2022-09-23T12:11:31.815Z,38.79
2022-09-23T12:14:05.213Z,39.45
2022-09-23T12:17:00.363Z,39.70
2022-09-23T12:19:48.314Z,40.03
2022-09-23T12:22:43.625Z,40.12
2022-09-23T12:25:32.003Z,40.56
2022-09-23T12:28:30.286Z,40.43
2022-09-23T12:31:01.384Z,40.33
2022-09-23T12:33:33.030Z,40.32
2022-09-23T12:36:14.623Z,40.85
2022-09-23T12:38:52.256Z,41.39
2022-09-23T12:41:41.072Z,41.61
2022-09-23T12:44:13.150Z,41.70
2022-09-23T12:46:46.195Z,41.38
2022-09-23T12:49:28.093Z,41.17
2022-09-23T12:52:31.879Z,41.31
2022-09-23T12:55:25.455Z,41.38
2022-09-23T12:57:53.877Z,41.44
2022-09-23T13:00:30.950Z,41.51
2022-09-23T13:03:20.551Z,41.58
2022-09-23T13:06:38.494Z,41.85
2022-09-23T13:09:29.618Z,43.70
2022-09-23T13:12:03.563Z,43.77
2022-09-23T13:14:37.085Z,43.87
2022-09-23T13:17:05.462Z,44.32
2022-09-23T13:19:45.552Z,45.58
2022-09-23T13:22:14.262Z,46.14
2022-09-23T13:24:44.050Z,47.25
2022-09-23T13:27:36.009Z,48.77
2022-09-23T13:30:15.272Z,49.18
2022-09-23T13:32:52.697Z,49.84
2022-09-23T13:35:33.834Z,50.15
2022-09-23T13:38:14.008Z,51.02
2022-09-23T13:40:45.564Z,51.68
2022-09-23T13:43:26.840Z,52.18
2022-09-23T13:45:55.722Z,52.87
2022-09-23T13:48:27.952Z,53.70
2022-09-23T13:50:57.707Z,53.82
2022-09-23T13:53:32.517Z,54.36
2022-09-23T13:56:09.107Z,54.38
2022-09-23T13:58:37.116Z,54.05
2022-09-23T14:01:10.836Z,54.54
2022-09-23T14:03:41.188Z,54.46
2022-09-23T14:06:18.094Z,54.45
2022-09-23T14:08:51.121Z,54.20
2022-09-23T14:11:23.103Z,54.44
2022-09-23T14:13:55.186Z,54.17
2022-09-23T14:16:27.358Z,53.88
2022-09-23T14:19:01.538Z,53.99
2022-09-23T14:21:37.214Z,53.58
2022-09-23T14:24:11.244Z,53.74
2022-09-23T14:26:41.043Z,53.25
2022-09-23T14:29:16.679Z,53.76
2022-09-23T14:32:07.015Z,53.48
2022-09-23T14:35:05.848Z,53.43
2022-09-23T14:37:58.289Z,53.62
2022-09-23T14:40:36.003Z,53.40
2022-09-23T14:43:27.425Z,53.37
2022-09-23T14:45:59.908Z,53.69
2022-09-23T14:48:34.579Z,53.55
2022-09-23T14:51:16.190Z,53.17
2022-09-23T14:53:47.287Z,53.40
2022-09-23T14:56:19.610Z,53.38
2022-09-23T14:58:57.887Z,53.96
2022-09-23T15:01:35.238Z,53.36
2022-09-23T15:04:14.798Z,53.76
2022-09-23T15:07:15.758Z,53.41
2022-09-23T15:09:46.021Z,53.37
2022-09-23T15:12:21.222Z,52.86
2022-09-23T15:14:57.713Z,52.56
2022-09-23T15:17:26.036Z,53.04
2022-09-23T15:20:29.664Z,53.39
2022-09-23T15:22:57.648Z,53.03
2022-09-23T15:25:32.621Z,53.27
2022-09-23T15:28:04.063Z,54.16
2022-09-23T15:30:32.722Z,54.43
2022-09-23T15:33:00.784Z,54.49
2022-09-23T15:35:31.605Z,54.81
2022-09-23T15:38:03.642Z,55.37
2022-09-23T15:40:37.397Z,55.50
2022-09-23T15:43:21.782Z,56.25
2022-09-23T15:46:10.894Z,56.14
2022-09-23T15:48:58.812Z,55.81
2022-09-23T15:51:30.993Z,56.35
2022-09-23T15:53:59.175Z,56.49
2022-09-23T15:56:30.015Z,56.89
2022-09-23T15:58:58.087Z,56.62
2022-09-23T16:01:36.479Z,56.66
2022-09-23T16:04:05.751Z,57.35
2022-09-23T16:06:36.879Z,57.65
2022-09-23T16:09:05.184Z,57.97
2022-09-23T16:11:33.603Z,58.40
2022-09-23T16:14:01.916Z,58.41
2022-09-23T16:16:30.089Z,58.71
2022-09-23T16:18:59.910Z,58.94
2022-09-23T16:21:29.378Z,58.87
2022-09-23T16:24:00.115Z,59.21
2022-09-23T16:26:36.825Z,59.40
2022-09-23T16:29:04.925Z,60.05
2022-09-23T16:31:33.527Z,60.02
2022-09-23T16:34:03.192Z,61.07
2022-09-23T16:36:34.608Z,60.77
2022-09-23T16:39:07.971Z,61.37
2022-09-23T16:41:36.149Z,61.44
2022-09-23T16:44:08.115Z,61.71
2022-09-23T16:46:36.474Z,61.98
2022-09-23T16:49:05.073Z,61.63
2022-09-23T16:51:39.030Z,61.77
2022-09-23T16:54:14.352Z,62.19
2022-09-23T16:56:45.644Z,62.05
2022-09-23T16:59:15.427Z,62.27
2022-09-23T17:02:02.873Z,63.12
2022-09-23T17:04:33.029Z,62.77
2022-09-23T17:07:01.158Z,62.81
2022-09-23T17:09:30.977Z,63.26
2022-09-23T17:12:08.015Z,63.04
2022-09-23T17:14:38.976Z,63.61
2022-09-23T17:17:07.213Z,63.39
2022-09-23T17:19:36.714Z,63.33
2022-09-23T17:22:04.730Z,63.63
2022-09-23T17:24:32.644Z,64.26
2022-09-23T17:27:01.564Z,63.59
2022-09-23T17:29:29.696Z,63.93
2022-09-23T17:31:57.708Z,64.38
2022-09-23T17:34:25.958Z,64.89
2022-09-23T17:36:53.971Z,64.29
2022-09-23T17:39:41.165Z,64.75
2022-09-23T17:42:10.046Z,65.13
2022-09-23T17:44:38.033Z,64.65
2022-09-23T17:47:07.963Z,65.16
2022-09-23T17:49:36.050Z,65.32
2022-09-23T17:52:08.063Z,65.05
2022-09-23T17:54:37.347Z,65.41
2022-09-23T17:57:05.268Z,65.51
2022-09-23T17:59:33.158Z,65.60
2022-09-23T18:02:02.122Z,65.88
2022-09-23T18:04:30.109Z,65.68
2022-09-23T18:06:57.972Z,66.32
2022-09-23T18:09:26.229Z,65.92
2022-09-23T18:11:55.319Z,65.99
2022-09-23T18:14:24.573Z,66.33
2022-09-23T18:16:54.428Z,66.60
2022-09-23T18:19:23.321Z,66.37
2022-09-23T18:21:59.794Z,66.25
2022-09-23T18:24:32.276Z,66.05
2022-09-23T18:27:02.109Z,66.25
2022-09-23T18:29:30.406Z,66.31
2022-09-23T18:31:59.795Z,66.73
2022-09-23T18:34:27.972Z,66.41
2022-09-23T18:36:57.692Z,66.82
2022-09-23T18:39:25.809Z,66.88
2022-09-23T18:41:53.770Z,66.87
2022-09-23T18:44:22.002Z,67.16
2022-09-23T18:46:49.931Z,67.26
2022-09-23T18:49:38.062Z,67.51
2022-09-23T18:52:05.979Z,67.37
2022-09-23T18:54:34.016Z,67.46
2022-09-23T18:57:03.036Z,67.78
2022-09-23T18:59:33.995Z,67.84
2022-09-23T19:02:02.166Z,67.90
2022-09-23T19:04:50.448Z,68.12
2022-09-23T19:07:18.308Z,67.62
2022-09-23T19:09:46.531Z,67.89
2022-09-23T19:12:17.113Z,67.97
2022-09-23T19:14:45.368Z,67.98
2022-09-23T19:17:13.511Z,68.27
2022-09-23T19:19:42.760Z,68.24
2022-09-23T19:22:10.780Z,68.38
2022-09-23T19:24:39.095Z,68.50
2022-09-23T19:27:08.072Z,67.99
2022-09-23T19:29:39.294Z,68.40
2022-09-23T19:32:07.566Z,68.23
2022-09-23T19:34:38.286Z,68.44
2022-09-23T19:37:06.334Z,68.80
2022-09-23T19:39:35.427Z,68.78
2022-09-23T19:42:06.050Z,69.02
2022-09-23T19:44:38.552Z,68.92
2022-09-23T19:47:06.588Z,68.56
2022-09-23T19:49:34.746Z,68.74
2022-09-23T19:52:02.897Z,69.29
2022-09-23T19:54:30.881Z,69.30
2022-09-23T19:57:01.896Z,69.46
2022-09-23T19:59:29.864Z,69.50
2022-09-23T20:01:57.892Z,69.10
2022-09-23T20:04:28.029Z,69.49
2022-09-23T20:06:56.040Z,69.75
2022-09-23T20:09:23.986Z,69.31
2022-09-23T20:11:52.891Z,69.72
2022-09-23T20:14:23.409Z,69.39
2022-09-23T20:16:53.845Z,69.38
2022-09-23T20:19:23.999Z,69.25
2022-09-23T20:22:11.817Z,69.54
2022-09-23T20:24:40.664Z,69.75
2022-09-23T20:27:11.840Z,69.66
2022-09-23T20:29:39.784Z,69.57
2022-09-23T20:32:08.038Z,69.91
2022-09-23T20:34:36.259Z,69.94
2022-09-23T20:37:06.305Z,70.25
2022-09-23T20:39:34.362Z,70.24
2022-09-23T20:42:03.309Z,70.24
2022-09-23T20:44:31.301Z,70.49
2022-09-23T20:46:59.518Z,70.65
2022-09-23T20:49:27.517Z,70.45
2022-09-23T20:51:55.460Z,70.44
2022-09-23T20:54:23.609Z,70.52
2022-09-23T20:56:51.540Z,70.06
2022-09-23T20:59:19.447Z,70.81
2022-09-23T21:01:48.168Z,70.48
2022-09-23T21:04:16.304Z,70.54
2022-09-23T21:06:44.268Z,71.07
2022-09-23T21:09:12.366Z,70.87
2022-09-23T21:11:40.391Z,70.99
2022-09-23T21:14:08.796Z,70.72
2022-09-23T21:16:39.762Z,70.72
2022-09-23T21:19:08.793Z,71.00
2022-09-23T21:21:37.422Z,70.78
2022-09-23T21:24:43.796Z,70.72
2022-09-23T21:26:54.007Z,70.37
2022-09-23T21:29:22.794Z,71.23
2022-09-23T21:31:50.768Z,70.59
2022-09-23T21:34:19.931Z,70.74
2022-09-23T21:36:49.215Z,71.23
2022-09-23T21:39:17.246Z,70.97
2022-09-23T21:41:45.149Z,70.91
2022-09-23T21:44:13.301Z,71.32
2022-09-23T21:46:41.345Z,71.23
2022-09-23T21:49:09.670Z,71.23
2022-09-23T21:51:42.025Z,71.22
2022-09-23T21:54:16.160Z,71.30
2022-09-23T21:56:45.505Z,71.64
2022-09-23T21:59:13.748Z,71.60
2022-09-23T22:01:53.225Z,71.45
2022-09-23T22:04:22.603Z,71.24
2022-09-23T22:06:50.639Z,71.46
2022-09-23T22:09:21.481Z,71.58
2022-09-23T22:12:10.954Z,71.61
2022-09-23T22:14:40.496Z,71.78
2022-09-23T22:17:10.912Z,72.09
2022-09-23T22:19:46.494Z,71.61
2022-09-23T22:22:17.235Z,71.89
2022-09-23T22:24:48.674Z,71.55
2022-09-23T22:27:19.401Z,71.73
2022-09-23T22:30:08.046Z,71.71
2022-09-23T22:32:42.142Z,72.11
2022-09-23T22:35:18.594Z,71.48
2022-09-23T22:37:47.950Z,71.74
2022-09-23T22:40:16.944Z,72.06
2022-09-23T22:42:47.026Z,72.18
2022-09-23T22:45:15.089Z,72.26
2022-09-23T22:47:45.991Z,71.71
2022-09-23T22:50:17.918Z,71.80
2022-09-23T22:52:46.007Z,72.33
2022-09-23T22:55:14.038Z,72.03
2022-09-23T22:57:42.260Z,72.17
2022-09-23T23:00:12.850Z,71.71
2022-09-23T23:02:40.807Z,71.63
2022-09-23T23:05:09.257Z,72.54
2022-09-23T23:07:37.988Z,72.47
2022-09-23T23:10:10.707Z,72.22
2022-09-23T23:12:41.694Z,72.58
2022-09-23T23:15:13.684Z,72.35
2022-09-23T23:17:44.066Z,72.71
2022-09-23T23:20:13.867Z,72.72
2022-09-23T23:22:41.876Z,72.42
2022-09-23T23:25:10.256Z,72.48
2022-09-23T23:27:39.214Z,72.18
2022-09-23T23:30:08.833Z,72.08
2022-09-23T23:32:36.564Z,72.81
2022-09-23T23:35:04.933Z,72.17
2022-09-23T23:37:32.920Z,72.55
2022-09-23T23:40:00.909Z,72.09
2022-09-23T23:42:29.255Z,72.77
2022-09-23T23:44:57.310Z,72.56
2022-09-23T23:47:27.125Z,72.33
2022-09-23T23:49:55.512Z,72.18
2022-09-23T23:52:23.480Z,72.37
2022-09-23T23:54:52.231Z,72.68
2022-09-23T23:57:21.797Z,72.70
2022-09-23T23:59:50.109Z,72.79
